Time;durP1;ratioP1;P1;durP2;ratioP2;P2;SDS_P1;SDS_P2;PMS_P1;PMS_P2;Temp;Humidity;BMP_temperature;BMP_pressure;BME280_temperature;BME280_humidity;BME280_pressure;Samples;Min_cycle;Max_cycle;Signal;HPM_P1;HPM_P2
2024/01/07 00:02:11;;;;;;;22.30;12.90;;;2.70;99.90;;;;;;7359995;32;20161;-57
2024/01/07 00:06:13;;;;;;;20.65;12.05;;;2.60;99.90;;;;;;7365322;32;20202;-56
2024/01/07 00:10:15;;;;;;;19.67;11.70;;;2.60;99.90;;;;;;7362847;32;20242;-56
2024/01/07 00:14:17;;;;;;;20.62;11.60;;;2.50;99.90;;;;;;7354324;32;20603;-56
2024/01/07 00:18:18;;;;;;;18.20;11.93;;;2.70;99.90;;;;;;7354742;32;20111;-56
2024/01/07 00:22:20;;;;;;;18.17;11.18;;;2.70;99.90;;;;;;7357188;32;20189;-56
2024/01/07 00:26:22;;;;;;;19.73;11.60;;;2.60;99.90;;;;;;7357614;32;20167;-56
2024/01/07 00:30:23;;;;;;;20.70;12.40;;;2.60;99.90;;;;;;7350343;32;20233;-56
2024/01/07 00:34:25;;;;;;;21.35;11.80;;;2.60;99.90;;;;;;7354814;32;20151;-55
2024/01/07 00:38:27;;;;;;;18.80;11.43;;;2.60;99.90;;;;;;7359834;32;20174;-56
2024/01/07 00:42:29;;;;;;;18.33;11.48;;;2.70;99.90;;;;;;7361053;32;20667;-58
2024/01/07 00:46:31;;;;;;;19.70;11.98;;;2.60;99.90;;;;;;7359331;32;20462;-54
2024/01/07 00:50:33;;;;;;;17.17;11.55;;;2.70;99.90;;;;;;7356192;32;20548;-57
2024/01/07 00:54:35;;;;;;;19.62;11.85;;;2.70;99.90;;;;;;7356989;32;20253;-55
2024/01/07 00:58:37;;;;;;;19.60;11.50;;;2.60;99.90;;;;;;7363487;32;20135;-56
2024/01/07 01:02:39;;;;;;;22.48;13.00;;;2.70;99.90;;;;;;7362455;32;20173;-57
2024/01/07 01:06:41;;;;;;;20.52;12.37;;;2.60;99.90;;;;;;7359987;32;20139;-55
2024/01/07 01:10:43;;;;;;;23.75;13.57;;;2.60;99.90;;;;;;7353849;32;20111;-55
2024/01/07 01:14:44;;;;;;;23.90;13.50;;;2.70;99.90;;;;;;7362269;32;20206;-55
2024/01/07 01:18:46;;;;;;;21.87;13.65;;;2.60;99.90;;;;;;7353930;32;20119;-56
2024/01/07 01:22:48;;;;;;;22.40;13.05;;;2.50;99.90;;;;;;7362435;32;20175;-56
2024/01/07 01:26:50;;;;;;;19.55;12.20;;;2.40;99.90;;;;;;7359670;32;20217;-56
2024/01/07 01:30:51;;;;;;;20.52;12.25;;;2.50;99.90;;;;;;7372360;32;20152;-56
2024/01/07 01:34:53;;;;;;;21.77;12.00;;;2.40;99.90;;;;;;7367629;32;20107;-55
2024/01/07 01:38:55;;;;;;;18.92;11.65;;;2.40;99.90;;;;;;7361130;32;20297;-56
2024/01/07 01:42:57;;;;;;;23.48;12.50;;;2.40;99.90;;;;;;7368662;32;20146;-55
2024/01/07 01:47:00;;;;;;;20.83;12.27;;;2.40;99.90;;;;;;7362990;32;20241;-55
2024/01/07 01:51:02;;;;;;;19.45;11.12;;;2.40;99.90;;;;;;7360799;32;20120;-56
2024/01/07 01:55:04;;;;;;;22.95;12.20;;;2.40;99.90;;;;;;7361725;32;20214;-56
2024/01/07 01:59:08;;;;;;;21.73;12.20;;;2.40;99.90;;;;;;7359803;32;20159;-56
2024/01/07 02:03:10;;;;;;;19.52;11.65;;;2.40;99.90;;;;;;7366141;32;20548;-56
2024/01/07 02:07:12;;;;;;;18.67;12.85;;;2.40;99.90;;;;;;7356067;32;20152;-56
2024/01/07 02:11:17;;;;;;;20.73;12.63;;;2.40;99.90;;;;;;7361389;32;20178;-57
2024/01/07 02:15:20;;;;;;;21.92;13.00;;;2.40;99.90;;;;;;7362512;32;20522;-56
2024/01/07 02:19:22;;;;;;;22.05;12.40;;;2.40;99.90;;;;;;7363506;32;20385;-56
2024/01/07 02:23:23;;;;;;;20.77;12.32;;;2.40;99.90;;;;;;7368785;32;20119;-56
2024/01/07 02:27:25;;;;;;;22.35;11.95;;;2.40;99.90;;;;;;7363914;32;20555;-56
2024/01/07 02:31:27;;;;;;;24.63;13.43;;;2.40;99.90;;;;;;7364936;32;20721;-57
2024/01/07 02:35:29;;;;;;;23.35;13.18;;;2.40;99.90;;;;;;7361934;32;20151;-56
2024/01/07 02:39:31;;;;;;;26.60;13.68;;;2.40;99.90;;;;;;7365133;32;20161;-56
2024/01/07 02:43:32;;;;;;;26.27;14.65;;;2.30;99.90;;;;;;7370523;32;20231;-56
2024/01/07 02:47:35;;;;;;;25.48;13.30;;;2.30;99.90;;;;;;7366990;32;20321;-56
2024/01/07 02:51:37;;;;;;;25.55;14.02;;;2.10;99.90;;;;;;7353775;32;20198;-56
2024/01/07 02:55:39;;;;;;;26.52;14.15;;;2.10;99.90;;;;;;7360201;32;20111;-56
2024/01/07 02:59:40;;;;;;;26.55;13.35;;;2.10;99.90;;;;;;7365778;32;20144;-56
2024/01/07 03:03:42;;;;;;;25.02;13.52;;;2.10;99.90;;;;;;7353633;32;20183;-56
2024/01/07 03:07:44;;;;;;;24.35;13.65;;;2.10;99.90;;;;;;7355140;32;20529;-56
2024/01/07 03:11:45;;;;;;;24.20;14.40;;;2.20;99.90;;;;;;7358802;32;20313;-56
2024/01/07 03:15:47;;;;;;;24.87;13.93;;;2.20;99.90;;;;;;7366753;32;20106;-56
2024/01/07 03:19:49;;;;;;;23.75;13.80;;;2.20;99.90;;;;;;7363832;32;20437;-58
2024/01/07 03:23:51;;;;;;;22.48;13.82;;;2.10;99.90;;;;;;7354942;32;20555;-56
2024/01/07 03:27:52;;;;;;;21.85;13.32;;;2.00;99.90;;;;;;7367828;32;20135;-56
2024/01/07 03:31:54;;;;;;;21.30;11.82;;;2.00;99.90;;;;;;7355581;32;20088;-56
2024/01/07 03:35:56;;;;;;;19.48;11.38;;;1.90;99.90;;;;;;7359450;32;20110;-56
2024/01/07 03:39:58;;;;;;;20.48;12.13;;;1.90;99.90;;;;;;7361842;32;20127;-56
2024/01/07 03:44:00;;;;;;;18.65;11.35;;;1.90;99.90;;;;;;7364170;32;20119;-55
2024/01/07 03:48:01;;;;;;;19.73;12.07;;;1.90;99.90;;;;;;7363066;32;20130;-55
2024/01/07 03:52:05;;;;;;;21.27;13.10;;;2.10;99.90;;;;;;7361781;32;20535;-56
2024/01/07 03:56:07;;;;;;;21.92;12.32;;;1.90;99.90;;;;;;7357431;32;20111;-57
2024/01/07 04:00:09;;;;;;;24.75;14.15;;;1.90;99.90;;;;;;7356223;32;20252;-56
2024/01/07 04:04:13;;;;;;;20.52;12.68;;;1.90;99.90;;;;;;7361740;32;20248;-55
2024/01/07 04:08:18;;;;;;;26.20;13.65;;;1.80;99.90;;;;;;7357212;32;20913;-55
2024/01/07 04:12:19;;;;;;;24.00;14.82;;;1.80;99.90;;;;;;7361382;32;20203;-55
2024/01/07 04:16:21;;;;;;;24.33;14.00;;;1.80;99.90;;;;;;7357426;32;20118;-56
2024/01/07 04:20:23;;;;;;;23.17;13.88;;;1.80;99.90;;;;;;7357845;32;20122;-57
2024/01/07 04:24:25;;;;;;;22.98;14.05;;;1.60;99.90;;;;;;7361493;32;20119;-56
2024/01/07 04:28:27;;;;;;;24.90;14.55;;;1.60;99.90;;;;;;7357554;32;20239;-56
2024/01/07 04:32:29;;;;;;;25.50;14.18;;;1.60;99.90;;;;;;7363821;32;20174;-55
2024/01/07 04:36:31;;;;;;;23.33;14.35;;;1.50;99.90;;;;;;7359951;32;20135;-56
2024/01/07 04:40:32;;;;;;;26.45;15.25;;;1.50;99.90;;;;;;7357418;32;20118;-54
2024/01/07 04:44:34;;;;;;;22.08;13.73;;;1.50;99.90;;;;;;7357684;32;20127;-55
2024/01/07 04:48:36;;;;;;;25.15;14.73;;;1.50;99.90;;;;;;7357057;32;20215;-56
2024/01/07 04:52:38;;;;;;;24.73;14.27;;;1.50;99.90;;;;;;7357258;32;20556;-56
2024/01/07 04:56:40;;;;;;;23.92;14.68;;;1.50;99.90;;;;;;7353915;32;20159;-57
2024/01/07 05:00:41;;;;;;;25.70;14.15;;;1.40;99.90;;;;;;7360920;32;20220;-57
2024/01/07 05:04:43;;;;;;;21.48;12.85;;;1.50;99.90;;;;;;7364109;32;20148;-56
2024/01/07 05:08:45;;;;;;;23.83;13.93;;;1.40;99.90;;;;;;7366234;32;20509;-56
2024/01/07 05:12:47;;;;;;;21.20;14.00;;;1.40;99.90;;;;;;7359384;32;20550;-56
2024/01/07 05:16:49;;;;;;;22.40;14.02;;;1.40;99.90;;;;;;7365389;32;20111;-58
2024/01/07 05:20:51;;;;;;;22.02;14.23;;;1.40;99.90;;;;;;7361134;32;20637;-56
2024/01/07 05:24:53;;;;;;;20.85;13.07;;;1.40;99.90;;;;;;7362063;32;20195;-55
2024/01/07 05:28:54;;;;;;;24.55;14.45;;;1.40;99.90;;;;;;7360103;32;20143;-57
2024/01/07 05:32:56;;;;;;;18.58;13.07;;;1.30;99.90;;;;;;7367124;32;20285;-56
2024/01/07 05:36:58;;;;;;;19.83;11.63;;;1.30;99.90;;;;;;7358354;32;20230;-55
2024/01/07 05:41:01;;;;;;;18.37;11.77;;;1.30;99.90;;;;;;7366420;32;20130;-55
2024/01/07 05:45:03;;;;;;;19.77;12.93;;;1.30;99.90;;;;;;7369255;32;20122;-56
2024/01/07 05:49:05;;;;;;;21.08;13.00;;;1.20;99.90;;;;;;7363693;32;20588;-55
2024/01/07 05:53:07;;;;;;;18.87;12.20;;;1.30;99.90;;;;;;7351718;32;20210;-55
2024/01/07 05:57:08;;;;;;;22.87;14.50;;;1.30;99.90;;;;;;7367328;32;20122;-56
2024/01/07 06:01:10;;;;;;;24.00;14.32;;;1.20;99.90;;;;;;7360512;32;20253;-56
2024/01/07 06:05:12;;;;;;;23.92;14.25;;;1.30;99.90;;;;;;7358205;32;20119;-56
2024/01/07 06:09:14;;;;;;;22.40;13.85;;;1.30;99.90;;;;;;7367485;32;20119;-56
2024/01/07 06:13:16;;;;;;;23.08;13.98;;;1.30;99.90;;;;;;7359749;32;20213;-54
2024/01/07 06:17:18;;;;;;;23.25;14.23;;;1.40;99.90;;;;;;7360390;32;20174;-56
2024/01/07 06:21:19;;;;;;;24.10;13.65;;;1.40;99.90;;;;;;7363112;32;20525;-56
2024/01/07 06:25:21;;;;;;;24.08;14.50;;;1.30;99.90;;;;;;7358453;32;21401;-56
2024/01/07 06:29:23;;;;;;;23.50;13.35;;;1.40;99.90;;;;;;7362227;32;20186;-58
2024/01/07 06:33:25;;;;;;;23.15;14.60;;;1.40;99.90;;;;;;7363434;32;20171;-57
2024/01/07 06:37:29;;;;;;;22.27;14.20;;;1.50;99.90;;;;;;7360776;32;20184;-55
2024/01/07 06:41:30;;;;;;;22.42;14.00;;;1.30;99.90;;;;;;7364602;32;20303;-55
2024/01/07 06:45:32;;;;;;;23.87;14.40;;;1.30;99.90;;;;;;7362900;32;20254;-56
2024/01/07 06:49:34;;;;;;;24.98;15.32;;;1.30;99.90;;;;;;7362099;32;20423;-56
2024/01/07 06:53:36;;;;;;;22.67;14.27;;;1.30;99.90;;;;;;7365621;32;20190;-55
2024/01/07 06:57:38;;;;;;;26.85;15.50;;;1.20;99.90;;;;;;7360226;32;20119;-56
2024/01/07 07:01:39;;;;;;;27.70;15.80;;;1.20;99.90;;;;;;7362566;32;20131;-55
2024/01/07 07:05:41;;;;;;;28.40;16.58;;;1.20;99.90;;;;;;7363175;32;20228;-57
2024/01/07 07:09:43;;;;;;;27.75;15.57;;;1.10;99.90;;;;;;7363917;32;20231;-56
2024/01/07 07:13:45;;;;;;;25.37;15.55;;;1.10;99.90;;;;;;7361454;32;20157;-56
2024/01/07 07:17:46;;;;;;;26.62;15.95;;;1.20;99.90;;;;;;7354670;32;20300;-56
2024/01/07 07:21:48;;;;;;;28.60;16.75;;;1.20;99.90;;;;;;7356394;32;20099;-54
2024/01/07 07:25:50;;;;;;;29.52;16.90;;;1.10;99.90;;;;;;7364238;32;20110;-55
2024/01/07 07:29:52;;;;;;;30.37;16.98;;;1.10;99.90;;;;;;7361069;32;20603;-58
2024/01/07 07:33:54;;;;;;;32.92;17.55;;;0.90;99.90;;;;;;7359633;32;20119;-58
2024/01/07 07:37:55;;;;;;;27.73;16.73;;;0.90;99.90;;;;;;7366492;32;20110;-58
2024/01/07 07:41:57;;;;;;;32.33;18.10;;;1.00;99.90;;;;;;7358463;32;20188;-57
2024/01/07 07:46:01;;;;;;;30.90;17.27;;;0.90;99.90;;;;;;7356125;32;20568;-56
2024/01/07 07:50:03;;;;;;;31.62;17.20;;;0.90;99.90;;;;;;7353540;32;20512;-58
2024/01/07 07:54:05;;;;;;;28.95;16.87;;;0.80;99.90;;;;;;7357067;32;20638;-59
2024/01/07 07:58:08;;;;;;;34.60;19.55;;;0.90;99.90;;;;;;7358147;32;20248;-59
2024/01/07 08:02:10;;;;;;;35.90;19.23;;;0.90;99.90;;;;;;7359354;32;20280;-55
2024/01/07 08:06:11;;;;;;;33.80;19.17;;;0.90;99.90;;;;;;7352008;32;20195;-57
2024/01/07 08:10:13;;;;;;;30.37;17.87;;;0.90;99.90;;;;;;7358125;32;20209;-56
2024/01/07 08:14:15;;;;;;;32.70;17.33;;;1.00;99.90;;;;;;7361952;32;20175;-57
2024/01/07 08:18:17;;;;;;;30.73;16.70;;;0.80;99.90;;;;;;7358775;32;20209;-56
2024/01/07 08:22:19;;;;;;;27.87;16.70;;;0.80;99.90;;;;;;7353050;32;20635;-57
2024/01/07 08:26:21;;;;;;;30.60;16.98;;;0.90;99.90;;;;;;7355608;32;20166;-56
2024/01/07 08:30:23;;;;;;;26.20;15.43;;;0.80;99.90;;;;;;7353146;32;20197;-57
2024/01/07 08:34:26;;;;;;;18.55;12.23;;;0.90;99.90;;;;;;7366306;32;20221;-57
2024/01/07 08:38:28;;;;;;;20.70;12.73;;;0.90;99.90;;;;;;7361461;32;20384;-57
2024/01/07 08:42:30;;;;;;;16.80;11.85;;;0.80;99.90;;;;;;7361748;32;20135;-57
2024/01/07 08:46:32;;;;;;;20.60;13.18;;;0.90;99.90;;;;;;7361526;32;20153;-55
2024/01/07 08:50:33;;;;;;;14.32;9.68;;;0.90;99.90;;;;;;7363733;32;20103;-55
2024/01/07 08:54:35;;;;;;;17.87;12.30;;;0.80;99.90;;;;;;7366077;32;20111;-57
2024/01/07 08:58:37;;;;;;;18.90;11.85;;;0.70;99.90;;;;;;7365656;32;20102;-56
2024/01/07 09:02:40;;;;;;;18.50;11.77;;;0.80;99.90;;;;;;7362237;32;20214;-58
2024/01/07 09:06:44;;;;;;;19.80;12.15;;;0.80;99.90;;;;;;7362381;32;20130;-58
2024/01/07 09:10:46;;;;;;;17.30;12.20;;;0.90;99.90;;;;;;7367616;32;20135;-56
2024/01/07 09:14:48;;;;;;;16.87;10.80;;;0.90;99.90;;;;;;7367337;32;20268;-58
2024/01/07 09:18:50;;;;;;;20.25;11.85;;;0.90;99.90;;;;;;7355099;32;20127;-57
2024/01/07 09:22:52;;;;;;;18.60;11.10;;;0.70;99.90;;;;;;7364607;32;20103;-57
2024/01/07 09:26:56;;;;;;;17.92;10.90;;;0.80;99.90;;;;;;7361105;32;20099;-56
2024/01/07 09:30:58;;;;;;;20.90;11.00;;;0.80;99.90;;;;;;7358122;32;20274;-57
2024/01/07 09:35:00;;;;;;;18.87;12.05;;;0.80;99.90;;;;;;7365308;32;20484;-56
2024/01/07 09:39:04;;;;;;;20.27;12.07;;;0.70;99.90;;;;;;7364834;32;20103;-57
2024/01/07 09:43:06;;;;;;;21.60;12.63;;;0.70;99.90;;;;;;7361422;32;20138;-58
2024/01/07 09:47:13;;;;;;;19.80;12.05;;;0.70;99.90;;;;;;7357780;32;20111;-56
2024/01/07 09:51:17;;;;;;;17.70;11.73;;;0.70;99.90;;;;;;7363668;32;20610;-57
2024/01/07 09:55:28;;;;;;;16.75;11.15;;;0.70;99.90;;;;;;7369625;32;20122;-56
2024/01/07 09:59:30;;;;;;;21.98;11.50;;;0.90;99.90;;;;;;7358971;32;20250;-56
2024/01/07 10:03:32;;;;;;;18.80;11.57;;;0.70;99.90;;;;;;7360882;32;20301;-57
2024/01/07 10:07:34;;;;;;;16.90;11.65;;;0.70;99.90;;;;;;7366436;32;20337;-56
2024/01/07 10:11:36;;;;;;;17.73;11.23;;;0.90;99.90;;;;;;7360986;32;20139;-57
2024/01/07 10:15:38;;;;;;;17.05;10.80;;;0.90;99.90;;;;;;7366444;32;20169;-56
2024/01/07 10:19:40;;;;;;;17.42;11.68;;;0.80;99.90;;;;;;7366640;32;20125;-57
2024/01/07 10:23:42;;;;;;;18.15;11.25;;;0.80;99.90;;;;;;7361751;32;20149;-57
2024/01/07 10:27:44;;;;;;;16.08;10.63;;;0.70;99.90;;;;;;7359302;32;20571;-57
2024/01/07 10:31:46;;;;;;;15.65;9.90;;;0.60;99.90;;;;;;7362563;32;20225;-57
2024/01/07 10:36:05;;;;;;;17.15;10.32;;;0.60;99.90;;;;;;7367927;32;20139;-57
2024/01/07 10:40:10;;;;;;;17.10;9.75;;;0.70;99.90;;;;;;7356503;32;20362;-57
2024/01/07 10:44:12;;;;;;;14.13;9.40;;;0.70;99.90;;;;;;7366383;32;20514;-57
2024/01/07 10:48:18;;;;;;;17.02;9.50;;;0.80;99.90;;;;;;7363152;32;20149;-56
2024/01/07 10:52:20;;;;;;;13.20;9.07;;;0.80;99.90;;;;;;7358039;32;20180;-58
2024/01/07 10:56:24;;;;;;;13.57;8.88;;;0.80;99.90;;;;;;7361284;32;20174;-57
2024/01/07 11:00:26;;;;;;;16.00;8.80;;;0.90;99.90;;;;;;7360058;32;20473;-57
2024/01/07 11:04:42;;;;;;;12.48;8.77;;;0.80;99.90;;;;;;7362987;32;20863;-57
2024/01/07 11:09:16;;;;;;;16.02;8.70;;;0.90;99.90;;;;;;7367661;32;20183;-59
2024/01/07 11:13:38;;;;;;;11.55;7.93;;;0.70;99.90;;;;;;7361563;32;20325;-57
2024/01/07 11:17:45;;;;;;;15.20;8.85;;;0.60;99.90;;;;;;7364451;32;20107;-58
2024/01/07 11:21:47;;;;;;;16.75;10.45;;;0.60;99.90;;;;;;7361769;32;20773;-56
2024/01/07 11:25:49;;;;;;;18.55;10.30;;;0.70;99.90;;;;;;7355077;32;20145;-56
2024/01/07 11:30:01;;;;;;;15.18;9.75;;;0.70;99.90;;;;;;7361019;32;20196;-57
2024/01/07 11:34:03;;;;;;;17.20;10.60;;;0.60;99.90;;;;;;7362018;32;20158;-58
2024/01/07 11:38:05;;;;;;;14.27;9.77;;;0.70;99.90;;;;;;7360378;32;20194;-56
2024/01/07 11:42:07;;;;;;;13.65;9.55;;;0.70;99.90;;;;;;7360749;32;20199;-57
2024/01/07 11:46:08;;;;;;;14.73;8.63;;;0.60;99.90;;;;;;7362870;32;20156;-56
2024/01/07 11:50:10;;;;;;;15.43;7.97;;;0.60;99.90;;;;;;7359996;32;20214;-56
2024/01/07 11:54:12;;;;;;;15.00;7.70;;;0.70;99.90;;;;;;7362545;32;20338;-57
2024/01/07 11:58:14;;;;;;;9.55;6.93;;;0.70;99.90;;;;;;7358021;32;20121;-57
2024/01/07 12:02:17;;;;;;;10.95;6.45;;;0.70;99.90;;;;;;7365335;32;20129;-57
2024/01/07 12:06:19;;;;;;;13.18;6.20;;;0.70;99.90;;;;;;7360764;32;20573;-57
2024/01/07 12:10:21;;;;;;;12.98;6.47;;;0.70;99.90;;;;;;7363096;32;20194;-57
2024/01/07 12:14:24;;;;;;;9.90;5.75;;;0.80;99.90;;;;;;7362876;32;20119;-57
2024/01/07 12:18:26;;;;;;;8.32;5.72;;;0.60;99.90;;;;;;7355657;32;20125;-57
2024/01/07 12:22:28;;;;;;;9.05;6.57;;;0.50;99.90;;;;;;7354877;32;20945;-57
2024/01/07 12:26:30;;;;;;;11.75;5.82;;;0.50;99.90;;;;;;7353892;32;20126;-57
2024/01/07 12:30:32;;;;;;;6.47;3.83;;;0.70;99.90;;;;;;7356676;32;20493;-57
2024/01/07 12:34:35;;;;;;;7.15;4.07;;;0.50;99.90;;;;;;7363114;32;20129;-57
2024/01/07 12:38:38;;;;;;;5.93;3.75;;;0.40;99.90;;;;;;7357785;32;20625;-56
2024/01/07 12:42:44;;;;;;;5.30;3.95;;;0.30;99.90;;;;;;7360437;32;20130;-56
2024/01/07 12:46:48;;;;;;;;;;;0.20;99.90;;;;;;7356929;32;20091;-57
2024/01/07 12:50:50;;;;;;;6.80;3.30;;;0.20;99.90;;;;;;7361380;32;20223;-55
2024/01/07 12:54:51;;;;;;;4.90;3.25;;;-0.10;99.90;;;;;;7360443;32;20359;-56
2024/01/07 12:58:53;;;;;;;9.27;3.60;;;-0.30;99.90;;;;;;7364414;32;20514;-58
2024/01/07 13:02:55;;;;;;;5.40;3.25;;;-0.20;99.90;;;;;;7365173;32;20143;-56
2024/01/07 13:07:01;;;;;;;5.75;3.28;;;-0.20;99.90;;;;;;7362531;32;20562;-56
2024/01/07 13:11:04;;;;;;;6.70;3.10;;;-0.20;99.90;;;;;;7358091;32;20241;-57
2024/01/07 13:15:06;;;;;;;3.55;2.40;;;0.00;99.90;;;;;;7360180;32;20154;-56
2024/01/07 13:19:10;;;;;;;4.62;2.80;;;-0.10;99.90;;;;;;7364266;32;20193;-57
2024/01/07 13:23:12;;;;;;;5.85;3.33;;;-0.20;99.90;;;;;;7357341;32;20219;-56
2024/01/07 13:27:14;;;;;;;4.95;2.83;;;-0.10;99.90;;;;;;7364538;32;20291;-57
2024/01/07 13:31:16;;;;;;;4.80;2.97;;;-0.20;99.90;;;;;;7369008;32;20443;-57
2024/01/07 13:35:18;;;;;;;5.93;3.10;;;-0.30;99.90;;;;;;7369950;32;20206;-56
2024/01/07 13:39:21;;;;;;;7.43;3.20;;;-0.20;99.90;;;;;;7362783;32;20152;-57
2024/01/07 13:43:25;;;;;;;4.75;2.47;;;-0.30;99.90;;;;;;7372353;32;20248;-57
2024/01/07 13:47:27;;;;;;;6.10;2.65;;;-0.30;99.90;;;;;;7359401;32;20152;-57
2024/01/07 13:51:29;;;;;;;4.07;2.53;;;-0.30;99.90;;;;;;7365347;32;20133;-57
2024/01/07 13:55:31;;;;;;;5.90;3.03;;;-0.20;99.90;;;;;;7362171;32;20256;-57
2024/01/07 13:59:33;;;;;;;7.45;3.08;;;-0.20;99.90;;;;;;7356670;32;20179;-57
2024/01/07 14:03:35;;;;;;;2.50;1.83;;;-0.20;99.90;;;;;;7368301;32;20106;-56
2024/01/07 14:07:36;;;;;;;3.15;2.00;;;-0.20;99.90;;;;;;7362765;32;20543;-56
2024/01/07 14:11:38;;;;;;;3.05;2.20;;;-0.20;99.90;;;;;;7351479;32;20282;-57
2024/01/07 14:15:40;;;;;;;5.95;2.50;;;-0.10;99.90;;;;;;7359988;32;20115;-57
2024/01/07 14:19:43;;;;;;;3.97;2.20;;;-0.20;99.90;;;;;;7364309;32;20175;-57
2024/01/07 14:23:45;;;;;;;4.32;2.00;;;0.00;99.90;;;;;;7364525;32;20256;-56
2024/01/07 14:27:47;;;;;;;4.43;2.17;;;-0.20;99.90;;;;;;7357432;32;20107;-57
2024/01/07 14:31:49;;;;;;;3.72;1.90;;;-0.30;99.90;;;;;;7366402;32;20374;-56
2024/01/07 14:35:51;;;;;;;5.37;2.20;;;-0.30;99.90;;;;;;7362139;32;20338;-57
2024/01/07 14:39:53;;;;;;;3.53;2.28;;;-0.30;99.90;;;;;;7359759;32;20564;-56
2024/01/07 14:43:55;;;;;;;4.20;2.12;;;-0.30;99.90;;;;;;7362730;32;20123;-56
2024/01/07 14:47:57;;;;;;;3.87;1.77;;;-0.20;99.90;;;;;;7363410;32;20111;-57
2024/01/07 14:51:58;;;;;;;3.20;1.95;;;-0.20;99.90;;;;;;7366404;32;20943;-57
2024/01/07 14:56:00;;;;;;;3.05;2.00;;;-0.20;99.90;;;;;;7366275;32;20103;-57
2024/01/07 15:00:05;;;;;;;3.75;2.30;;;-0.10;99.90;;;;;;7358758;32;20095;-57
2024/01/07 15:04:06;;;;;;;6.43;2.22;;;-0.10;99.90;;;;;;7363414;32;20237;-58
2024/01/07 15:08:12;;;;;;;3.08;2.10;;;0.00;99.90;;;;;;7366019;32;20228;-56
2024/01/07 15:12:15;;;;;;;3.47;1.83;;;0.00;99.90;;;;;;7360847;32;20485;-57
2024/01/07 15:16:16;;;;;;;5.12;2.05;;;0.00;99.90;;;;;;7365403;32;20123;-57
2024/01/07 15:20:18;;;;;;;4.28;2.62;;;0.00;99.90;;;;;;7360013;32;20186;-57
2024/01/07 15:24:20;;;;;;;4.00;1.48;;;-0.10;99.90;;;;;;7360979;32;20129;-58
2024/01/07 15:28:22;;;;;;;3.17;1.75;;;-0.10;99.90;;;;;;7361850;32;20209;-57
2024/01/07 15:32:26;;;;;;;3.92;1.73;;;-0.20;99.90;;;;;;7364341;32;20107;-57
2024/01/07 15:36:28;;;;;;;3.62;1.58;;;-0.30;99.90;;;;;;7356300;32;20111;-56
2024/01/07 15:40:30;;;;;;;2.95;1.70;;;-0.30;99.90;;;;;;7356303;32;20418;-57
2024/01/07 15:44:33;;;;;;;2.30;1.42;;;-0.20;99.90;;;;;;7363044;32;20542;-56
2024/01/07 15:48:35;;;;;;;1.70;1.15;;;-0.20;99.90;;;;;;7359341;32;20198;-56
2024/01/07 15:52:37;;;;;;;3.25;1.10;;;-0.30;99.90;;;;;;7354760;32;20175;-55
2024/01/07 15:56:38;;;;;;;2.47;1.30;;;-0.20;99.90;;;;;;7362855;32;20208;-55
2024/01/07 16:00:40;;;;;;;1.80;0.90;;;-0.30;99.90;;;;;;7365413;32;20110;-56
2024/01/07 16:04:42;;;;;;;1.67;1.20;;;-0.30;99.90;;;;;;7357095;32;20099;-56
2024/01/07 16:08:44;;;;;;;4.20;1.67;;;-0.20;99.90;;;;;;7365346;32;20129;-55
2024/01/07 16:12:46;;;;;;;3.45;1.65;;;-0.30;99.90;;;;;;7358269;32;20159;-55
2024/01/07 16:16:47;;;;;;;3.53;1.23;;;-0.20;99.90;;;;;;7367331;32;20285;-55
2024/01/07 16:20:49;;;;;;;5.25;1.92;;;-0.20;99.90;;;;;;7361000;32;20264;-56
2024/01/07 16:24:51;;;;;;;2.20;0.98;;;-0.20;99.90;;;;;;7354274;32;20162;-56
2024/01/07 16:28:53;;;;;;;2.20;1.27;;;-0.30;99.90;;;;;;7359303;32;20153;-57
2024/01/07 16:32:54;;;;;;;3.65;1.85;;;-0.10;99.90;;;;;;7358404;32;20337;-57
2024/01/07 16:36:56;;;;;;;2.40;1.50;;;-0.10;99.90;;;;;;7349678;32;20588;-57
2024/01/07 16:40:58;;;;;;;2.22;1.40;;;-0.20;99.90;;;;;;7361353;32;20103;-57
2024/01/07 16:45:01;;;;;;;2.78;1.40;;;-0.10;99.90;;;;;;7351904;32;20244;-59
2024/01/07 16:49:03;;;;;;;2.85;1.30;;;-0.10;99.90;;;;;;7357251;32;20129;-59
2024/01/07 16:53:08;;;;;;;2.70;1.02;;;-0.10;99.90;;;;;;7355867;32;20186;-57
2024/01/07 16:57:09;;;;;;;3.08;1.23;;;0.00;99.90;;;;;;7359680;32;20368;-57
2024/01/07 17:01:11;;;;;;;3.92;1.67;;;0.00;99.90;;;;;;7366996;32;20229;-56
2024/01/07 17:05:13;;;;;;;2.62;1.77;;;-0.10;99.90;;;;;;7360287;32;20107;-58
2024/01/07 17:09:17;;;;;;;3.03;1.67;;;0.00;99.90;;;;;;7366069;32;20261;-58
2024/01/07 17:13:18;;;;;;;3.30;1.55;;;0.00;99.90;;;;;;7363746;32;21024;-55
2024/01/07 17:17:20;;;;;;;5.05;2.15;;;0.10;99.90;;;;;;7356604;32;20232;-57
2024/01/07 17:21:22;;;;;;;6.35;2.95;;;0.10;99.90;;;;;;7362248;32;20167;-57
2024/01/07 17:25:24;;;;;;;2.87;1.90;;;0.10;99.90;;;;;;7364850;32;20130;-60
2024/01/07 17:29:26;;;;;;;2.95;1.92;;;0.20;99.90;;;;;;7357319;32;20127;-57
2024/01/07 17:33:27;;;;;;;3.25;1.70;;;0.00;99.90;;;;;;7361307;32;20312;-57
2024/01/07 17:37:29;;;;;;;1.90;1.37;;;0.00;99.90;;;;;;7360664;32;20265;-57
2024/01/07 17:41:32;;;;;;;4.43;2.10;;;0.00;99.90;;;;;;7372021;32;20122;-55
2024/01/07 17:45:34;;;;;;;2.90;1.58;;;0.00;99.90;;;;;;7363008;32;20225;-57
2024/01/07 17:49:35;;;;;;;3.45;1.90;;;0.00;99.90;;;;;;7358556;32;20131;-57
2024/01/07 17:53:41;;;;;;;5.68;2.30;;;0.10;99.90;;;;;;7358029;32;20118;-57
2024/01/07 17:57:51;;;;;;;4.37;2.22;;;0.20;99.90;;;;;;7361133;32;20107;-56
2024/01/07 18:01:54;;;;;;;3.42;2.15;;;0.10;99.90;;;;;;7360630;32;20550;-58
2024/01/07 18:05:58;;;;;;;7.30;4.50;;;0.20;99.90;;;;;;7362089;32;20460;-56
2024/01/07 18:10:00;;;;;;;6.97;3.28;;;0.20;99.90;;;;;;7360925;32;20254;-57
2024/01/07 18:14:02;;;;;;;6.30;3.00;;;0.10;99.90;;;;;;7366498;32;20868;-57
2024/01/07 18:18:05;;;;;;;11.75;7.87;;;0.10;99.90;;;;;;7364209;32;20126;-57
2024/01/07 18:22:07;;;;;;;6.18;4.35;;;0.00;99.90;;;;;;7361568;32;20233;-58
2024/01/07 18:26:10;;;;;;;10.82;6.20;;;0.00;99.90;;;;;;7362910;32;20126;-57
2024/01/07 18:30:12;;;;;;;4.10;2.42;;;-0.10;99.90;;;;;;7366465;32;20102;-55
2024/01/07 18:34:14;;;;;;;44.40;22.48;;;-0.10;99.90;;;;;;7358682;32;20099;-56
2024/01/07 18:38:16;;;;;;;12.52;4.93;;;-0.10;99.90;;;;;;7357658;32;20143;-56
2024/01/07 18:42:18;;;;;;;12.00;6.00;;;-0.20;99.90;;;;;;7353617;32;20103;-56
2024/01/07 18:46:20;;;;;;;13.95;8.75;;;-0.20;99.90;;;;;;7360385;32;20125;-57
2024/01/07 18:50:22;;;;;;;21.87;15.48;;;-0.30;99.90;;;;;;7356801;32;20344;-57
2024/01/07 18:54:24;;;;;;;6.47;4.65;;;-0.40;99.90;;;;;;7358510;32;20203;-56
2024/01/07 18:58:26;;;;;;;8.57;5.57;;;-0.30;99.90;;;;;;7365259;32;20540;-56
2024/01/07 19:02:27;;;;;;;16.92;8.75;;;-0.50;99.90;;;;;;7364952;32;20190;-56
2024/01/07 19:06:30;;;;;;;7.85;3.20;;;-0.70;99.90;;;;;;7354048;32;20103;-56
2024/01/07 19:10:31;;;;;;;10.50;5.10;;;-0.60;99.90;;;;;;7361173;32;20123;-57
2024/01/07 19:14:34;;;;;;;5.55;2.95;;;-0.70;99.90;;;;;;7363862;32;20103;-55
2024/01/07 19:18:39;;;;;;;3.90;3.03;;;-0.80;99.90;;;;;;7363699;32;20186;-56
2024/01/07 19:22:42;;;;;;;5.90;3.03;;;-0.80;99.90;;;;;;7357301;32;20291;-56
2024/01/07 19:26:45;;;;;;;7.70;3.12;;;-0.90;99.90;;;;;;7362506;32;20737;-56
2024/01/07 19:30:48;;;;;;;4.85;3.28;;;-1.00;99.90;;;;;;7357468;32;20114;-56
2024/01/07 19:34:51;;;;;;;5.68;3.12;;;-1.00;99.90;;;;;;7349208;32;20192;-56
2024/01/07 19:38:55;;;;;;;4.78;3.05;;;-1.00;99.90;;;;;;7363605;32;20112;-57
2024/01/07 19:42:57;;;;;;;6.18;3.67;;;-1.10;99.90;;;;;;7359002;32;20190;-56
2024/01/07 19:46:59;;;;;;;7.80;3.25;;;-1.10;99.90;;;;;;7361451;32;20156;-55
2024/01/07 19:51:01;;;;;;;5.25;3.22;;;-1.10;99.90;;;;;;7358112;32;20169;-56
2024/01/07 19:55:03;;;;;;;6.28;2.92;;;-1.20;99.90;;;;;;7359250;32;20186;-57
2024/01/07 19:59:05;;;;;;;4.43;2.95;;;-1.20;99.90;;;;;;7366546;32;20114;-56
2024/01/07 20:03:07;;;;;;;18.90;14.32;;;-1.20;99.90;;;;;;7357735;32;20100;-57
2024/01/07 20:07:08;;;;;;;7.97;4.65;;;-1.20;99.90;;;;;;7355950;32;20212;-56
2024/01/07 20:11:19;;;;;;;6.32;3.67;;;-1.20;99.90;;;;;;7357393;32;20087;-55
2024/01/07 20:15:21;;;;;;;7.25;3.40;;;-1.30;99.90;;;;;;7353479;32;20228;-55
2024/01/07 20:19:23;;;;;;;7.22;3.87;;;-1.30;99.90;;;;;;7359015;32;20153;-56
2024/01/07 20:23:25;;;;;;;5.43;3.50;;;-1.20;99.90;;;;;;7355730;32;20135;-56
2024/01/07 20:27:26;;;;;;;4.70;2.90;;;-1.30;99.90;;;;;;7360454;32;20106;-55
2024/01/07 20:31:31;;;;;;;5.75;3.10;;;-1.30;99.90;;;;;;7353588;32;20237;-56
2024/01/07 20:35:35;;;;;;;7.95;3.12;;;-1.30;99.90;;;;;;7358242;32;20176;-57
2024/01/07 20:39:37;;;;;;;6.85;3.28;;;-1.30;99.90;;;;;;7353816;32;20457;-56
2024/01/07 20:43:39;;;;;;;6.90;3.40;;;-1.30;99.90;;;;;;7353298;32;20146;-55
2024/01/07 20:47:41;;;;;;;6.32;3.80;;;-1.40;99.90;;;;;;7349892;32;20883;-56
2024/01/07 20:51:43;;;;;;;5.10;3.30;;;-1.40;99.90;;;;;;7357297;32;20228;-55
2024/01/07 20:55:45;;;;;;;6.22;3.60;;;-1.40;99.90;;;;;;7358795;32;20229;-55